Time;durP1;ratioP1;P1;durP2;ratioP2;P2;SDS_P1;SDS_P2;PMS_P1;PMS_P2;Temp;Humidity;BMP_temperature;BMP_pressure;BME280_temperature;BME280_humidity;BME280_pressure;Samples;Min_cycle;Max_cycle;Signal;HPM_P1;HPM_P2
2023/06/09 00:00:36;;;;;;;1.35;0.80;;;;;;;15.62;57.95;100921.78;5128893;28;20019;-62
2023/06/09 00:03:02;;;;;;;1.83;1.38;;;;;;;15.43;58.10;100916.91;5128852;28;20506;-61
2023/06/09 00:05:31;;;;;;;1.50;0.65;;;;;;;15.56;57.87;100938.44;5128886;28;20023;-62
2023/06/09 00:07:58;;;;;;;1.13;0.90;;;;;;;15.51;57.31;100926.38;5128739;28;20019;-62
2023/06/09 00:10:24;;;;;;;1.90;1.25;;;;;;;15.25;58.12;100931.22;5128974;28;20024;-62
2023/06/09 00:12:50;;;;;;;1.15;1.02;;;;;;;15.28;58.03;100939.00;5128612;28;20020;-61
2023/06/09 00:15:15;;;;;;;2.22;1.35;;;;;;;15.13;58.43;100942.78;5128654;28;20045;-62
2023/06/09 00:17:41;;;;;;;2.03;0.90;;;;;;;15.03;58.89;100949.91;5128682;28;20034;-62
2023/06/09 00:20:08;;;;;;;2.17;1.48;;;;;;;14.94;58.98;100950.09;5128542;28;20501;-63
2023/06/09 00:22:35;;;;;;;3.50;1.48;;;;;;;14.97;58.96;100961.38;5128751;28;20020;-63
2023/06/09 00:25:01;;;;;;;1.30;1.10;;;;;;;14.81;59.15;100952.94;5128584;28;20123;-61
2023/06/09 00:27:26;;;;;;;1.70;1.20;;;;;;;14.71;58.70;100944.34;5128486;28;20409;-62
2023/06/09 00:29:52;;;;;;;1.95;1.40;;;;;;;14.85;57.12;100952.00;5128166;28;20034;-61
2023/06/09 00:32:19;;;;;;;0.98;0.88;;;;;;;14.95;56.04;100964.91;5128484;28;20110;-61
2023/06/09 00:34:45;;;;;;;1.17;1.08;;;;;;;14.70;56.47;100957.44;5128423;28;20031;-63
2023/06/09 00:37:10;;;;;;;0.40;0.32;;;;;;;14.71;55.96;100962.63;5128348;28;20020;-62
2023/06/09 00:39:36;;;;;;;0.47;0.47;;;;;;;14.51;56.29;100970.81;5128381;28;20050;-62
2023/06/09 00:42:01;;;;;;;3.45;1.23;;;;;;;14.30;56.85;100970.25;5128341;28;20479;-61
2023/06/09 00:44:26;;;;;;;2.45;1.38;;;;;;;14.23;57.06;100976.47;5127770;28;20563;-62
2023/06/09 00:46:52;;;;;;;1.05;0.82;;;;;;;14.17;57.49;100994.84;5128258;28;20020;-62
2023/06/09 00:49:18;;;;;;;1.23;0.98;;;;;;;14.17;57.50;100992.22;5128002;28;20030;-61
2023/06/09 00:51:45;;;;;;;1.77;1.15;;;;;;;14.18;56.27;100996.56;5128263;28;20030;-62
2023/06/09 00:54:10;;;;;;;1.27;0.93;;;;;;;14.13;53.46;100975.75;5127790;28;20391;-61
2023/06/09 00:56:38;;;;;;;1.70;1.05;;;;;;;13.98;52.49;100998.56;5128078;28;20024;-62
2023/06/09 00:59:06;;;;;;;6.70;1.38;;;;;;;14.01;50.78;101000.25;5127460;28;20390;-61
2023/06/09 01:01:32;;;;;;;1.77;1.35;;;;;;;13.74;50.99;101004.94;5128084;28;20023;-62
2023/06/09 01:03:59;;;;;;;0.75;0.75;;;;;;;13.77;49.27;100998.84;5127574;28;20031;-61
2023/06/09 01:07:12;;;;;;;5.00;1.33;;;;;;;13.84;47.67;101032.66;5127827;28;20054;-62
2023/06/09 01:10:04;;;;;;;2.47;1.27;;;;;;;13.45;47.49;101033.03;5127689;28;20547;-64
2023/06/09 01:13:01;;;;;;;1.42;1.33;;;;;;;13.24;47.84;101029.78;5123334;28;20043;-64
2023/06/09 01:15:31;;;;;;;2.55;1.50;;;;;;;13.11;48.38;101015.13;5127402;28;20020;-64
2023/06/09 01:18:03;;;;;;;1.02;0.95;;;;;;;13.07;47.62;101032.53;5127571;28;20042;-63
2023/06/09 01:20:45;;;;;;;0.85;0.80;;;;;;;13.03;46.72;101023.03;5127442;28;20055;-64
2023/06/09 01:23:21;;;;;;;1.95;1.15;;;;;;;12.96;47.39;101023.94;5127196;28;20028;-64
2023/06/09 01:25:47;;;;;;;1.30;1.20;;;;;;;12.94;47.34;101025.72;5127480;28;20030;-63
2023/06/09 01:28:20;;;;;;;1.40;0.90;;;;;;;12.82;47.04;101024.94;5126996;28;20035;-64
2023/06/09 01:30:46;;;;;;;;;;;;;;;12.96;46.54;101023.94;5127542;28;20049;-63
2023/06/09 01:33:16;;;;;;;1.23;0.93;;;;;;;12.83;46.62;101024.06;5127249;28;19912;-65
2023/06/09 01:35:42;;;;;;;1.65;0.90;;;;;;;12.76;46.31;101018.00;5127293;28;20019;-64
2023/06/09 01:38:08;;;;;;;2.58;1.13;;;;;;;12.81;45.96;101031.00;5108952;28;20072;-64
2023/06/09 01:40:34;;;;;;;0.98;0.85;;;;;;;12.75;45.92;101025.84;5127299;28;20075;-63
2023/06/09 01:43:05;;;;;;;11.02;1.60;;;;;;;12.75;45.72;101031.94;5127030;28;20531;-64
2023/06/09 01:45:31;;;;;;;1.70;0.97;;;;;;;12.74;45.35;101039.75;5126815;28;20019;-63
2023/06/09 01:47:57;;;;;;;3.50;1.10;;;;;;;12.67;45.51;101032.88;5126777;28;20073;-64
2023/06/09 01:50:36;;;;;;;1.52;1.08;;;;;;;12.66;45.07;101037.22;5127210;28;20383;-64
2023/06/09 01:53:14;;;;;;;8.23;0.75;;;;;;;12.60;45.05;101035.50;5126787;28;20529;-64
2023/06/09 01:55:47;;;;;;;2.33;1.00;;;;;;;12.61;44.46;101065.03;5126955;28;20132;-64
2023/06/09 01:58:22;;;;;;;0.80;0.80;;;;;;;12.56;43.86;101045.94;5126609;28;20027;-62
2023/06/09 02:00:49;;;;;;;6.45;0.80;;;;;;;12.52;43.56;101060.75;5126488;28;20029;-63
2023/06/09 02:03:19;;;;;;;7.32;0.90;;;;;;;12.50;43.69;101039.06;5126764;28;20019;-64
2023/06/09 02:05:45;;;;;;;1.02;0.85;;;;;;;12.46;43.78;101047.75;5126425;28;20023;-64
2023/06/09 02:08:12;;;;;;;1.52;0.90;;;;;;;12.48;43.75;101066.84;5126525;28;20027;-63
2023/06/09 02:10:38;;;;;;;2.55;0.90;;;;;;;12.50;43.06;101063.38;5126119;28;20020;-63
2023/06/09 02:13:13;;;;;;;1.27;1.17;;;;;;;12.49;42.88;101064.22;5126414;28;20041;-64
2023/06/09 02:15:40;;;;;;;1.23;0.88;;;;;;;12.50;42.14;101054.69;5125503;28;20019;-63
2023/06/09 02:18:07;;;;;;;2.05;1.30;;;;;;;12.44;42.51;101052.97;5126459;28;20467;-64
2023/06/09 02:20:32;;;;;;;1.10;1.00;;;;;;;12.46;42.08;101051.22;5126157;28;20051;-63
2023/06/09 02:22:58;;;;;;;1.15;0.55;;;;;;;12.40;42.03;101051.25;5126183;28;20049;-63
2023/06/09 02:25:23;;;;;;;1.10;0.85;;;;;;;12.41;41.99;101063.41;5126026;28;20072;-63
2023/06/09 02:27:48;;;;;;;1.35;1.05;;;;;;;12.41;41.54;101057.34;5126222;28;20075;-64
2023/06/09 02:30:14;;;;;;;1.08;0.98;;;;;;;12.41;41.00;101057.34;5126013;28;20106;-63
2023/06/09 02:32:39;;;;;;;0.80;0.70;;;;;;;12.37;40.29;101036.53;5126355;28;20019;-63
2023/06/09 02:35:06;;;;;;;1.75;1.10;;;;;;;12.46;40.53;101060.78;5126128;28;20016;-64
2023/06/09 02:37:31;;;;;;;1.15;1.00;;;;;;;12.37;40.58;101061.69;5126065;28;20147;-64
2023/06/09 02:39:57;;;;;;;0.85;0.65;;;;;;;12.41;40.59;101065.16;5125752;28;20099;-64
2023/06/09 02:42:22;;;;;;;1.63;1.45;;;;;;;12.43;40.11;101066.84;5126018;28;20079;-64
2023/06/09 02:44:48;;;;;;;0.50;0.50;;;;;;;12.39;40.39;101059.94;5107602;28;20024;-64
2023/06/09 02:47:14;;;;;;;1.42;1.20;;;;;;;12.40;40.43;101066.88;5125963;28;20467;-64
2023/06/09 02:49:40;;;;;;;1.25;0.57;;;;;;;12.40;39.99;101092.91;5125789;28;20030;-63
2023/06/09 02:52:05;;;;;;;2.72;0.85;;;;;;;12.50;39.21;101085.94;5107096;28;20020;-63
2023/06/09 02:54:31;;;;;;;1.02;0.95;;;;;;;12.49;39.06;101084.22;5125876;28;20116;-64
2023/06/09 02:56:56;;;;;;;2.58;0.88;;;;;;;12.51;39.04;101093.72;5125853;28;20083;-65
2023/06/09 02:59:22;;;;;;;0.75;0.75;;;;;;;12.57;38.51;101077.19;5107227;28;20023;-64
2023/06/09 03:01:48;;;;;;;0.50;0.50;;;;;;;12.52;38.93;101094.59;5125684;28;20034;-65
2023/06/09 03:04:13;;;;;;;2.90;1.05;;;;;;;12.48;38.92;101072.03;5125619;28;20019;-63
2023/06/09 03:06:43;;;;;;;0.70;0.70;;;;;;;12.58;38.29;101086.75;5125760;28;20024;-63
2023/06/09 03:09:10;;;;;;;0.57;0.57;;;;;;;12.51;38.87;101101.53;5125498;28;20091;-64
2023/06/09 03:11:37;;;;;;;6.45;0.93;;;;;;;12.63;38.77;101105.84;5125638;28;20107;-64
2023/06/09 03:14:03;;;;;;;2.65;0.95;;;;;;;12.71;38.43;101090.16;5125339;28;20550;-63
2023/06/09 03:16:28;;;;;;;1.50;1.00;;;;;;;12.78;38.58;101067.50;5125694;28;20022;-63
2023/06/09 03:18:54;;;;;;;1.10;1.00;;;;;;;12.94;38.78;101072.63;5125789;28;20018;-63
2023/06/09 03:21:23;;;;;;;0.80;0.70;;;;;;;13.17;38.13;101101.13;5125306;28;20081;-64
2023/06/09 03:23:48;;;;;;;0.68;0.68;;;;;;;13.27;37.59;101107.97;5125428;28;20039;-64
2023/06/09 03:26:14;;;;;;;0.60;0.60;;;;;;;13.49;36.99;101091.28;5125457;28;20031;-63
2023/06/09 03:28:39;;;;;;;0.68;0.68;;;;;;;13.49;37.47;101083.44;5129033;28;20103;-63
2023/06/09 03:31:06;;;;;;;0.60;0.60;;;;;;;13.57;37.33;101105.16;5129767;28;20028;-64
2023/06/09 03:33:31;;;;;;;0.55;0.52;;;;;;;13.70;37.12;101107.63;5129454;28;20555;-63
2023/06/09 03:35:57;;;;;;;2.28;0.90;;;;;;;13.77;36.90;101103.22;5129641;28;20016;-63
2023/06/09 03:38:22;;;;;;;1.55;0.75;;;;;;;13.85;36.83;101099.63;5129430;28;20123;-64
2023/06/09 03:40:48;;;;;;;2.25;1.02;;;;;;;14.02;36.24;101100.31;5111357;28;20027;-63
2023/06/09 03:43:13;;;;;;;1.13;0.80;;;;;;;14.11;36.45;101095.88;5129518;28;20103;-65
2023/06/09 03:45:39;;;;;;;0.77;0.77;;;;;;;14.25;36.00;101094.81;5110790;28;20031;-64
2023/06/09 03:48:06;;;;;;;0.65;0.65;;;;;;;14.31;36.12;101101.72;5129158;28;20025;-62
2023/06/09 03:50:32;;;;;;;0.95;0.70;;;;;;;14.38;35.21;101117.28;5129340;28;20080;-64
2023/06/09 03:52:57;;;;;;;0.77;0.63;;;;;;;14.31;35.81;101107.81;5110996;28;20020;-65
2023/06/09 03:55:24;;;;;;;0.82;0.82;;;;;;;14.38;35.95;101100.75;5129267;28;20404;-64
2023/06/09 03:57:49;;;;;;;2.80;0.50;;;;;;;14.45;35.70;101127.66;5129145;28;20040;-63
2023/06/09 04:00:16;;;;;;;1.02;0.68;;;;;;;14.52;35.26;101104.94;5128919;28;20023;-64
2023/06/09 04:02:42;;;;;;;0.52;0.52;;;;;;;14.56;35.16;101093.53;5129123;28;20027;-65
2023/06/09 04:05:07;;;;;;;2.45;1.20;;;;;;;14.72;35.67;101117.72;5128977;28;20024;-64
2023/06/09 04:07:33;;;;;;;0.60;0.60;;;;;;;14.82;35.13;101119.34;5129001;28;20052;-63
2023/06/09 04:09:59;;;;;;;1.00;0.60;;;;;;;14.88;34.54;101110.53;5128951;28;20513;-64
2023/06/09 04:12:25;;;;;;;1.10;0.68;;;;;;;14.88;34.80;101118.38;5128819;28;20072;-64
2023/06/09 04:14:51;;;;;;;0.85;0.68;;;;;;;15.02;34.68;101133.84;5128713;28;20035;-65
2023/06/09 04:17:16;;;;;;;0.47;0.47;;;;;;;15.03;34.42;101098.97;5128840;28;20024;-59
2023/06/09 04:19:42;;;;;;;0.63;0.63;;;;;;;15.39;33.46;101129.78;5128413;28;20075;-59
2023/06/09 04:22:07;;;;;;;0.50;0.50;;;;;;;15.48;33.37;101136.59;5128762;28;20058;-61
2023/06/09 04:24:34;;;;;;;0.57;0.55;;;;;;;15.45;33.19;101123.56;5128697;28;20024;-61
2023/06/09 04:27:01;;;;;;;0.63;0.63;;;;;;;15.54;33.14;101127.78;5128560;28;20023;-60
2023/06/09 04:29:28;;;;;;;0.80;0.70;;;;;;;15.47;33.70;101121.78;5128446;28;20115;-59
2023/06/09 04:31:58;;;;;;;0.50;0.50;;;;;;;15.63;33.22;101121.53;5128491;28;20016;-60
2023/06/09 04:34:26;;;;;;;1.05;0.75;;;;;;;15.82;32.31;101172.66;5128625;28;20023;-60
2023/06/09 04:36:53;;;;;;;2.45;0.90;;;;;;;15.67;32.82;101139.75;5128332;28;20065;-59
2023/06/09 04:39:19;;;;;;;1.00;0.90;;;;;;;15.71;33.11;101130.09;5127940;28;20110;-60
2023/06/09 04:41:47;;;;;;;0.93;0.60;;;;;;;15.88;32.61;101132.41;5128376;28;20020;-58
2023/06/09 04:44:13;;;;;;;0.60;0.55;;;;;;;15.92;32.91;101141.06;5127864;28;20016;-61
2023/06/09 04:46:39;;;;;;;1.13;0.73;;;;;;;16.02;33.11;101166.22;5128577;28;20024;-60
2023/06/09 04:49:10;;;;;;;1.20;1.10;;;;;;;15.99;32.59;101137.44;5127823;28;20448;-59
2023/06/09 04:51:41;;;;;;;0.93;0.63;;;;;;;16.27;31.75;101152.63;5109321;28;20027;-61
2023/06/09 04:54:10;;;;;;;0.70;0.70;;;;;;;16.18;32.36;101151.06;5128062;28;20019;-61
2023/06/09 04:56:36;;;;;;;1.58;0.80;;;;;;;16.30;33.21;101149.94;5128098;28;20485;-59
2023/06/09 04:59:02;;;;;;;1.23;0.73;;;;;;;16.60;32.74;101155.44;5127739;28;20031;-59
2023/06/09 05:01:29;;;;;;;0.50;0.50;;;;;;;16.90;30.80;101138.19;5128008;28;20405;-59
2023/06/09 05:03:55;;;;;;;0.47;0.47;;;;;;;16.81;31.56;101152.38;5127965;28;20099;-58
2023/06/09 05:06:20;;;;;;;0.30;0.30;;;;;;;17.07;30.55;101167.53;5128025;28;20038;-58
2023/06/09 05:08:47;;;;;;;0.65;0.50;;;;;;;17.02;30.00;101174.63;5127901;28;20079;-60
2023/06/09 05:11:12;;;;;;;0.60;0.55;;;;;;;16.72;30.83;101166.56;5127681;28;20023;-59
2023/06/09 05:13:38;;;;;;;1.02;0.70;;;;;;;16.47;31.20;101146.09;5127720;28;20042;-59
2023/06/09 05:16:03;;;;;;;0.60;0.50;;;;;;;16.80;30.86;101174.25;5127564;28;20019;-58
2023/06/09 05:18:30;;;;;;;1.23;0.63;;;;;;;16.96;31.19;101157.25;5127744;28;20020;-57
2023/06/09 05:20:56;;;;;;;1.50;0.85;;;;;;;17.19;31.09;101181.25;5127614;28;20411;-60
2023/06/09 05:23:21;;;;;;;2.08;0.90;;;;;;;17.33;30.18;101146.81;5127618;28;20503;-59
2023/06/09 05:25:46;;;;;;;0.45;0.45;;;;;;;17.64;29.40;101184.53;5127523;28;20159;-59
2023/06/09 05:28:12;;;;;;;0.40;0.40;;;;;;;17.28;29.78;101190.69;5127596;28;20058;-58
2023/06/09 05:30:38;;;;;;;1.48;0.63;;;;;;;17.16;29.75;101197.94;5127530;28;20051;-59
2023/06/09 05:33:04;;;;;;;4.65;1.45;;;;;;;17.02;31.05;101171.13;5126903;28;20011;-58
2023/06/09 05:35:29;;;;;;;2.33;0.57;;;;;;;17.56;29.63;101185.59;5126866;28;20023;-58
2023/06/09 05:37:55;;;;;;;1.85;0.75;;;;;;;17.55;29.75;101183.03;5127384;28;20019;-60
2023/06/09 05:40:20;;;;;;;0.70;0.70;;;;;;;17.68;29.69;101178.31;5127254;28;20071;-58
2023/06/09 05:42:46;;;;;;;0.75;0.75;;;;;;;17.60;30.02;101189.03;5127485;28;20020;-59
2023/06/09 05:45:12;;;;;;;1.05;0.40;;;;;;;17.80;29.03;101192.88;5126804;28;20032;-59
2023/06/09 05:47:37;;;;;;;0.50;0.43;;;;;;;17.57;29.08;101186.47;5127286;28;20042;-59
2023/06/09 05:50:03;;;;;;;1.17;0.73;;;;;;;17.61;29.07;101203.88;5126509;28;20443;-59
2023/06/09 05:52:28;;;;;;;0.50;0.50;;;;;;;17.46;29.93;101190.22;5127269;28;20026;-57
2023/06/09 05:54:55;;;;;;;1.30;0.75;;;;;;;17.55;30.61;101194.41;5127386;28;20011;-60
2023/06/09 05:57:20;;;;;;;1.38;0.85;;;;;;;18.12;28.88;101214.84;5127119;28;20023;-58
2023/06/09 05:59:45;;;;;;;0.68;0.60;;;;;;;17.66;29.86;101211.63;5126792;28;20019;-57
2023/06/09 06:02:14;;;;;;;2.50;0.73;;;;;;;17.78;30.01;101218.34;5127044;28;20023;-56
2023/06/09 06:04:39;;;;;;;0.90;0.65;;;;;;;18.03;29.52;101205.44;5126848;28;20035;-61
2023/06/09 06:07:05;;;;;;;0.50;0.50;;;;;;;18.03;29.60;101205.44;5126870;28;20097;-56
2023/06/09 06:09:30;;;;;;;0.65;0.55;;;;;;;18.20;30.20;101201.47;5126859;28;20033;-59
2023/06/09 06:11:56;;;;;;;0.40;0.40;;;;;;;18.62;29.71;101204.69;5126769;28;20468;-60
2023/06/09 06:14:21;;;;;;;0.80;0.60;;;;;;;18.91;28.41;101209.06;5126461;28;20053;-60
2023/06/09 06:16:47;;;;;;;1.33;0.68;;;;;;;18.63;29.28;101209.91;5126813;28;20045;-60
2023/06/09 06:19:13;;;;;;;1.05;1.00;;;;;;;18.90;28.65;101206.47;5126659;28;20042;-59
2023/06/09 06:21:41;;;;;;;0.75;0.65;;;;;;;18.81;28.33;101211.13;5126591;28;20112;-59
2023/06/09 06:24:06;;;;;;;0.57;0.55;;;;;;;18.79;28.87;101219.97;5126585;28;20038;-60
2023/06/09 06:26:32;;;;;;;1.10;0.65;;;;;;;18.78;28.47;101207.72;5126726;28;20094;-58
2023/06/09 06:28:57;;;;;;;0.82;0.60;;;;;;;18.96;27.90;101211.59;5126381;28;20138;-57
2023/06/09 06:31:22;;;;;;;0.82;0.45;;;;;;;18.65;28.20;101217.75;5126642;28;20382;-59
2023/06/09 06:33:48;;;;;;;2.55;1.08;;;;;;;18.44;28.85;101192.06;5126379;28;20019;-59
2023/06/09 06:36:14;;;;;;;0.50;0.50;;;;;;;18.65;28.27;101220.38;5126451;28;20075;-58
2023/06/09 06:38:39;;;;;;;0.65;0.52;;;;;;;18.31;28.43;101223.06;5126470;28;20028;-59
2023/06/09 06:41:05;;;;;;;0.73;0.63;;;;;;;18.26;28.97;101210.97;5126357;28;20094;-55
2023/06/09 06:43:30;;;;;;;0.70;0.60;;;;;;;18.38;29.60;101217.66;5126342;28;20027;-59
2023/06/09 06:45:56;;;;;;;0.70;0.43;;;;;;;18.76;28.81;101206.91;5126063;28;20027;-59
2023/06/09 06:48:21;;;;;;;0.50;0.50;;;;;;;18.94;28.45;101221.28;5126235;28;20117;-57
2023/06/09 06:50:46;;;;;;;0.55;0.55;;;;;;;18.93;28.53;101230.94;5126353;28;20035;-59
2023/06/09 06:53:12;;;;;;;1.15;0.75;;;;;;;18.95;27.82;101223.88;5126105;28;20024;-57
2023/06/09 06:55:37;;;;;;;0.30;0.30;;;;;;;18.85;28.18;101230.31;5126138;28;20020;-58
2023/06/09 06:58:03;;;;;;;0.63;0.63;;;;;;;18.71;29.12;101238.59;5126114;28;20030;-57
2023/06/09 07:00:28;;;;;;;0.40;0.40;;;;;;;18.87;28.56;101220.59;5125942;28;20466;-57
2023/06/09 07:02:54;;;;;;;2.20;0.70;;;;;;;18.83;28.31;101224.25;5126117;28;20027;-58
2023/06/09 07:05:21;;;;;;;0.35;0.35;;;;;;;19.05;28.14;101237.59;5126037;28;20015;-56
2023/06/09 07:07:47;;;;;;;0.40;0.40;;;;;;;18.93;28.32;101238.00;5126132;28;20020;-60
2023/06/09 07:10:13;;;;;;;0.50;0.45;;;;;;;19.04;28.10;101222.72;5125868;28;20026;-57
2023/06/09 07:12:38;;;;;;;0.82;0.60;;;;;;;18.76;28.65;101212.16;5125606;28;20044;-53
2023/06/09 07:15:04;;;;;;;1.20;0.75;;;;;;;18.80;28.83;101243.59;5125615;28;20043;-57
2023/06/09 07:17:30;;;;;;;0.68;0.68;;;;;;;19.06;28.03;101227.91;5125969;28;20020;-55
2023/06/09 07:19:56;;;;;;;0.43;0.32;;;;;;;19.01;27.96;101240.38;5125481;28;20095;-57
2023/06/09 07:22:21;;;;;;;0.60;0.60;;;;;;;18.70;28.64;101243.03;5125843;28;20100;-56
2023/06/09 07:24:47;;;;;;;0.75;0.75;;;;;;;18.65;28.95;101233.53;5125493;28;20375;-59
2023/06/09 07:27:13;;;;;;;1.40;0.80;;;;;;;18.94;29.00;101231.81;5125751;28;20106;-56
2023/06/09 07:29:42;;;;;;;0.52;0.52;;;;;;;19.23;29.23;101237.97;5125467;28;20027;-58
2023/06/09 07:32:09;;;;;;;1.05;0.70;;;;;;;19.66;29.18;101242.75;5125875;28;20079;-58
2023/06/09 07:34:35;;;;;;;2.75;0.77;;;;;;;20.10;27.42;101249.19;5125439;28;20108;-55
2023/06/09 07:37:03;;;;;;;0.85;0.73;;;;;;;19.79;27.83;101233.50;5125893;28;20027;-56
2023/06/09 07:39:29;;;;;;;0.88;0.70;;;;;;;19.83;28.34;101234.25;5125533;28;20077;-57
2023/06/09 07:41:54;;;;;;;0.40;0.40;;;;;;;20.14;27.78;101249.06;5125394;28;20028;-56
2023/06/09 07:44:20;;;;;;;0.65;0.50;;;;;;;19.87;27.71;101240.31;5125211;28;20039;-57
2023/06/09 07:46:45;;;;;;;1.27;0.70;;;;;;;19.65;27.83;101249.78;5125588;28;20024;-56
2023/06/09 07:49:11;;;;;;;0.98;0.73;;;;;;;19.45;28.13;101247.81;5125516;28;20519;-58
2023/06/09 07:51:37;;;;;;;0.50;0.50;;;;;;;19.36;28.62;101246.31;5107100;28;20019;-58
2023/06/09 07:54:05;;;;;;;0.90;0.52;;;;;;;19.27;28.69;101243.97;5125388;28;20032;-58
2023/06/09 07:56:31;;;;;;;0.95;0.50;;;;;;;19.71;28.14;101248.72;5125429;28;20103;-58
2023/06/09 07:58:58;;;;;;;3.17;0.70;;;;;;;19.92;28.05;101244.47;5125223;28;20024;-59
2023/06/09 08:01:24;;;;;;;6.18;0.88;;;;;;;20.13;28.00;101249.09;5125123;28;20020;-59
2023/06/09 08:03:50;;;;;;;0.70;0.60;;;;;;;20.29;27.86;101247.63;5125183;28;20016;-58
2023/06/09 08:06:15;;;;;;;1.40;0.75;;;;;;;20.35;28.16;101251.81;5125263;28;20024;-58
2023/06/09 08:08:41;;;;;;;0.30;0.30;;;;;;;20.54;27.41;101256.44;5125149;28;20020;-57
2023/06/09 08:11:06;;;;;;;0.40;0.40;;;;;;;20.55;27.58;101240.56;5125293;28;20020;-58
2023/06/09 08:13:32;;;;;;;1.05;0.80;;;;;;;20.58;27.53;101239.56;5126667;28;20027;-59
2023/06/09 08:15:57;;;;;;;0.98;0.75;;;;;;;20.75;27.10;101249.47;5128719;28;20054;-55
2023/06/09 08:18:22;;;;;;;2.22;0.77;;;;;;;20.62;27.52;101224.50;5129158;28;20024;-58
2023/06/09 08:20:48;;;;;;;0.35;0.35;;;;;;;21.02;27.35;101241.44;5128383;28;20048;-56
2023/06/09 08:23:13;;;;;;;1.30;0.55;;;;;;;21.22;27.05;101247.72;5128626;28;20023;-59
2023/06/09 08:25:39;;;;;;;3.50;0.73;;;;;;;21.25;26.75;101242.31;5128411;28;20028;-57
2023/06/09 08:28:04;;;;;;;0.98;0.60;;;;;;;21.42;26.01;101224.94;5128601;28;20094;-58
2023/06/09 08:30:31;;;;;;;0.57;0.52;;;;;;;21.52;26.00;101239.47;5128522;28;20023;-57
2023/06/09 08:32:57;;;;;;;1.02;0.77;;;;;;;21.40;26.64;101250.53;5128507;28;20028;-57
2023/06/09 08:35:22;;;;;;;0.60;0.57;;;;;;;21.30;26.75;101243.00;5128626;28;20356;-57
2023/06/09 08:37:48;;;;;;;0.73;0.50;;;;;;;21.33;26.58;101249.94;5128472;28;20492;-58
2023/06/09 08:40:14;;;;;;;1.80;0.63;;;;;;;21.19;26.41;101242.56;5128347;28;20035;-58
2023/06/09 08:42:40;;;;;;;0.30;0.30;;;;;;;21.39;26.25;101280.53;5128398;28;20027;-57
2023/06/09 08:45:06;;;;;;;0.63;0.60;;;;;;;21.28;26.26;101254.53;5127972;28;20020;-58
2023/06/09 08:47:33;;;;;;;1.20;0.82;;;;;;;21.33;26.18;101249.94;5128448;28;20053;-58
2023/06/09 08:50:02;;;;;;;0.65;0.50;;;;;;;21.48;26.03;101242.31;5128325;28;20039;-59
2023/06/09 08:52:29;;;;;;;1.38;0.65;;;;;;;21.32;26.62;101257.91;5128353;28;20101;-57
2023/06/09 08:54:56;;;;;;;1.33;0.57;;;;;;;21.29;26.92;101240.41;5128170;28;20498;-58
2023/06/09 08:57:22;;;;;;;0.30;0.30;;;;;;;21.51;26.58;101239.53;5128235;28;20027;-56
2023/06/09 08:59:48;;;;;;;0.35;0.35;;;;;;;21.87;26.29;101246.00;5127791;28;20027;-57
2023/06/09 09:02:14;;;;;;;4.60;2.88;;;;;;;21.99;26.77;101231.41;5128098;28;20053;-58
2023/06/09 09:04:40;;;;;;;0.93;0.63;;;;;;;22.40;26.37;101243.69;5127968;28;20023;-58
2023/06/09 09:07:08;;;;;;;2.22;0.77;;;;;;;22.71;24.79;101229.09;5109528;28;20083;-56
2023/06/09 09:09:33;;;;;;;0.77;0.73;;;;;;;22.57;25.08;101231.50;5127555;28;20030;-59
2023/06/09 09:11:59;;;;;;;0.60;0.50;;;;;;;22.40;25.32;101259.56;5127855;28;20023;-58
2023/06/09 09:14:25;;;;;;;1.35;0.70;;;;;;;22.27;25.77;101241.59;5127462;28;20019;-58
2023/06/09 09:16:51;;;;;;;2.03;0.82;;;;;;;22.36;25.49;101253.56;5127990;28;20020;-59
2023/06/09 09:19:26;;;;;;;4.63;0.95;;;;;;;22.47;25.25;101244.28;5127569;28;20032;-59
2023/06/09 09:21:54;;;;;;;1.48;0.80;;;;;;;22.40;25.57;101233.97;5127611;28;20043;-59
2023/06/09 09:24:19;;;;;;;1.02;0.63;;;;;;;22.49;25.54;101245.91;5126483;28;20024;-58
2023/06/09 09:26:45;;;;;;;1.17;0.52;;;;;;;22.60;25.57;101242.84;5127084;28;20031;-60
2023/06/09 09:29:10;;;;;;;6.47;0.85;;;;;;;22.66;25.34;101254.91;5127365;28;20031;-57
2023/06/09 09:31:39;;;;;;;0.68;0.60;;;;;;;22.54;25.40;101275.69;5127529;28;20020;-57
2023/06/09 09:34:10;;;;;;;3.97;0.80;;;;;;;22.47;26.42;101239.84;5127351;28;20483;-58
2023/06/09 09:36:41;;;;;;;1.05;0.88;;;;;;;22.90;25.03;101239.69;5127482;28;20043;-57
2023/06/09 09:39:06;;;;;;;3.17;0.85;;;;;;;22.94;24.99;101258.06;5127322;28;20105;-58
2023/06/09 09:41:32;;;;;;;1.45;0.68;;;;;;;22.88;24.95;101230.06;5127335;28;20035;-57
2023/06/09 09:43:57;;;;;;;0.68;0.55;;;;;;;22.95;25.38;101226.22;5127028;28;20039;-55
2023/06/09 09:46:23;;;;;;;2.95;1.23;;;;;;;23.26;25.42;101232.66;5127021;28;20024;-58
2023/06/09 09:48:50;;;;;;;1.27;0.60;;;;;;;23.59;25.27;101219.63;5108911;28;20019;-59
2023/06/09 09:51:20;;;;;;;4.45;0.70;;;;;;;24.21;23.96;101229.75;5127104;28;20049;-59
2023/06/09 09:53:45;;;;;;;1.45;0.90;;;;;;;24.02;23.91;101243.94;5127054;28;20072;-58
2023/06/09 09:56:13;;;;;;;1.63;0.80;;;;;;;23.96;24.33;101232.78;5126944;28;20032;-58
2023/06/09 09:58:42;;;;;;;1.13;0.77;;;;;;;24.04;24.68;101227.09;5126989;28;20032;-58
2023/06/09 10:01:11;;;;;;;1.10;0.63;;;;;;;24.59;24.28;101225.06;5126706;28;20100;-59
2023/06/09 10:03:43;;;;;;;0.93;0.70;;;;;;;24.90;23.00;101228.72;5126894;28;20019;-57
2023/06/09 10:06:13;;;;;;;1.70;0.80;;;;;;;24.62;23.79;101240.84;5126828;28;20098;-58
2023/06/09 10:08:42;;;;;;;1.15;0.85;;;;;;;24.65;23.04;101230.03;5126957;28;20086;-59
2023/06/09 10:11:07;;;;;;;1.65;0.95;;;;;;;24.15;23.92;101224.75;5126844;28;20053;-58
2023/06/09 10:13:33;;;;;;;1.17;1.00;;;;;;;24.38;23.49;101217.34;5126728;28;20023;-58
2023/06/09 10:16:00;;;;;;;1.45;0.93;;;;;;;24.64;23.15;101238.97;5126623;28;20015;-58
2023/06/09 10:18:26;;;;;;;2.20;0.82;;;;;;;24.58;23.30;101212.75;5126671;28;20072;-59
2023/06/09 10:20:53;;;;;;;0.88;0.68;;;;;;;24.98;22.96;101220.31;5126628;28;20058;-60
2023/06/09 10:23:19;;;;;;;1.95;0.90;;;;;;;24.71;23.70;101218.25;5126742;28;20034;-57
2023/06/09 10:25:48;;;;;;;1.08;0.95;;;;;;;24.83;23.49;101227.31;5126714;28;20038;-60
2023/06/09 10:28:18;;;;;;;3.67;0.63;;;;;;;24.85;23.35;101226.31;5126713;28;20028;-60
2023/06/09 10:30:52;;;;;;;1.30;0.63;;;;;;;24.79;23.80;101217.81;5126445;28;20394;-59
2023/06/09 10:33:27;;;;;;;1.35;0.63;;;;;;;24.96;23.26;101228.38;5126716;28;20056;-60
2023/06/09 10:35:57;;;;;;;3.47;1.45;;;;;;;25.00;23.31;101213.97;5126282;28;20034;-59
2023/06/09 10:38:41;;;;;;;3.88;1.02;;;;;;;24.94;23.29;101218.75;5126405;28;20493;-60
2023/06/09 10:41:33;;;;;;;2.50;1.20;;;;;;;25.03;23.17;101228.91;5126492;28;20027;-59
2023/06/09 10:44:16;;;;;;;1.70;0.77;;;;;;;24.83;23.38;101222.00;5126325;28;20536;-58
2023/06/09 10:46:45;;;;;;;2.05;0.80;;;;;;;24.57;23.55;101217.19;5108048;28;20033;-58
2023/06/09 10:49:34;;;;;;;0.80;0.60;;;;;;;24.50;23.58;101210.53;5126344;28;20028;-53
2023/06/09 10:52:00;;;;;;;0.95;0.70;;;;;;;24.53;23.99;101218.31;5126310;28;20024;-58
2023/06/09 10:54:26;;;;;;;1.58;0.80;;;;;;;24.66;23.70;101223.81;5126155;28;20020;-57
2023/06/09 10:56:54;;;;;;;3.22;1.67;;;;;;;24.48;23.88;101213.25;5126093;28;20483;-58
2023/06/09 10:59:23;;;;;;;0.60;0.50;;;;;;;23.96;24.06;101216.88;5125701;28;20031;-57
2023/06/09 11:02:00;;;;;;;0.95;0.80;;;;;;;23.18;25.07;101208.34;5126153;28;20034;-59
2023/06/09 11:04:43;;;;;;;1.30;1.00;;;;;;;22.98;25.38;101207.53;5125872;28;20069;-58
2023/06/09 11:07:19;;;;;;;1.13;0.88;;;;;;;22.88;25.46;101191.25;5126228;28;20020;-58
2023/06/09 11:09:48;;;;;;;1.20;0.75;;;;;;;22.88;25.31;101193.03;5125774;28;20024;-59
2023/06/09 11:12:50;;;;;;;1.20;1.05;;;;;;;22.37;26.09;101199.72;5126010;28;20047;-58
2023/06/09 11:15:16;;;;;;;2.28;0.77;;;;;;;22.04;26.46;101195.88;5125659;28;20471;-58
2023/06/09 11:17:47;;;;;;;1.67;1.25;;;;;;;22.16;26.18;101193.63;5125876;28;20046;-57
2023/06/09 11:20:23;;;;;;;1.08;0.80;;;;;;;21.98;27.08;101198.81;5125600;28;20114;-59
2023/06/09 11:22:49;;;;;;;1.13;0.75;;;;;;;21.95;27.08;101212.16;5126080;28;20055;-58
2023/06/09 11:25:14;;;;;;;1.80;1.10;;;;;;;21.73;27.14;101210.41;5125451;28;20031;-57